createdAt,value
2022-12-16T00:01:53.592Z,-2.70
2022-12-16T00:06:56.387Z,-2.71
2022-12-16T00:11:57.835Z,-2.82
2022-12-16T00:16:59.240Z,-2.72
2022-12-16T00:22:00.689Z,-2.66
2022-12-16T00:27:02.181Z,-2.61
2022-12-16T00:32:03.915Z,-2.60
2022-12-16T00:37:05.382Z,-2.59
2022-12-16T00:42:06.808Z,-2.60
2022-12-16T00:47:08.237Z,-2.63
2022-12-16T00:52:09.639Z,-2.73
2022-12-16T00:57:11.062Z,-2.64
2022-12-16T01:02:12.526Z,-2.56
2022-12-16T01:07:14.026Z,-2.51
2022-12-16T01:12:15.514Z,-2.46
2022-12-16T01:17:16.989Z,-2.59
2022-12-16T01:22:18.705Z,-2.58
2022-12-16T01:27:20.148Z,-2.61
2022-12-16T01:32:21.969Z,-2.45
2022-12-16T01:37:24.362Z,-2.41
2022-12-16T01:42:28.821Z,-2.50
2022-12-16T01:47:33.285Z,-2.50
2022-12-16T01:52:41.150Z,-2.35
2022-12-16T01:57:50.336Z,-2.38
2022-12-16T02:02:53.874Z,-2.36
2022-12-16T02:08:10.382Z,-2.25
2022-12-16T02:13:26.745Z,-2.17
2022-12-16T02:18:43.149Z,-2.27
2022-12-16T02:24:09.160Z,-2.28
2022-12-16T02:29:42.716Z,-2.16
2022-12-16T02:34:47.132Z,-2.15
2022-12-16T02:40:04.137Z,-2.14
2022-12-16T02:45:13.287Z,-2.13
2022-12-16T02:50:20.713Z,-2.11
2022-12-16T02:55:32.788Z,-2.12
2022-12-16T03:00:47.687Z,-2.09
2022-12-16T03:05:52.106Z,-2.00
2022-12-16T03:10:59.824Z,-1.98
2022-12-16T03:16:02.945Z,-1.88
2022-12-16T03:21:07.742Z,-1.82
2022-12-16T03:26:15.970Z,-1.91
2022-12-16T03:31:27.060Z,-1.84
2022-12-16T03:36:32.253Z,-1.94
2022-12-16T03:41:34.898Z,-1.83
2022-12-16T03:46:36.684Z,-1.92
2022-12-16T03:51:38.166Z,-1.86
2022-12-16T03:56:39.617Z,-1.83
2022-12-16T04:01:41.706Z,-1.91
2022-12-16T04:06:43.300Z,-1.91
2022-12-16T04:12:03.421Z,-1.88
2022-12-16T04:17:24.404Z,-1.78
2022-12-16T04:22:48.414Z,-1.78
2022-12-16T04:27:50.154Z,-1.69
2022-12-16T04:33:17.449Z,-1.52
2022-12-16T04:38:37.670Z,-1.65
2022-12-16T04:43:57.640Z,-1.60
2022-12-16T04:49:18.664Z,-1.60
2022-12-16T04:54:38.452Z,-1.54
2022-12-16T04:59:58.652Z,-1.52
2022-12-16T05:05:18.691Z,-1.45
2022-12-16T05:10:38.908Z,-1.33
2022-12-16T05:15:59.589Z,-1.51
2022-12-16T05:21:20.972Z,-1.75
2022-12-16T05:26:41.016Z,-1.54
2022-12-16T05:32:01.186Z,-1.70
2022-12-16T05:37:21.163Z,-1.69
2022-12-16T05:42:41.292Z,-1.56
2022-12-16T05:48:01.423Z,-1.65
2022-12-16T05:53:22.158Z,-1.47
2022-12-16T05:58:42.312Z,-1.52
2022-12-16T06:04:02.594Z,-1.56
2022-12-16T06:09:22.978Z,-1.57
2022-12-16T06:14:43.178Z,-1.60
2022-12-16T06:20:03.225Z,-1.57
2022-12-16T06:25:23.922Z,-1.48
2022-12-16T06:30:43.820Z,-1.50
2022-12-16T06:36:03.931Z,-1.62
2022-12-16T06:41:24.050Z,-1.43
2022-12-16T06:46:44.198Z,-1.34
2022-12-16T06:52:04.259Z,-1.31
2022-12-16T06:57:24.167Z,-1.24
2022-12-16T07:02:44.392Z,-1.23
2022-12-16T07:08:11.025Z,-1.17
2022-12-16T07:13:31.512Z,-1.27
2022-12-16T07:18:51.671Z,-1.23
2022-12-16T07:24:11.604Z,-1.38
2022-12-16T07:29:31.680Z,-1.58
2022-12-16T07:34:51.859Z,-1.39
2022-12-16T07:40:11.867Z,-1.54
2022-12-16T07:45:32.005Z,-1.78
2022-12-16T07:50:51.971Z,-1.57
2022-12-16T07:56:12.987Z,-1.28
2022-12-16T08:01:33.147Z,-1.12
2022-12-16T08:06:53.204Z,-1.06
2022-12-16T08:12:13.121Z,-0.99
2022-12-16T08:17:33.207Z,-0.91
2022-12-16T08:22:53.316Z,-0.97
2022-12-16T08:28:15.897Z,-0.95
2022-12-16T08:33:36.219Z,-0.84
2022-12-16T08:38:56.549Z,-0.80
2022-12-16T08:44:16.564Z,-0.74
2022-12-16T08:49:36.759Z,-1.02
2022-12-16T08:54:56.819Z,-0.88
2022-12-16T09:00:17.006Z,-0.89
2022-12-16T09:05:37.136Z,-1.04
2022-12-16T09:10:57.276Z,-1.07
2022-12-16T09:16:19.772Z,-0.90
2022-12-16T09:21:40.484Z,-0.80
2022-12-16T09:27:00.217Z,-0.72
2022-12-16T09:32:20.097Z,-0.59
2022-12-16T09:37:40.256Z,-0.78
2022-12-16T09:43:05.822Z,-0.78
2022-12-16T09:48:37.443Z,-0.72
2022-12-16T09:53:59.038Z,-0.60
2022-12-16T09:59:24.771Z,-0.53
2022-12-16T10:04:44.826Z,-0.66
2022-12-16T10:10:21.998Z,-0.50
2022-12-16T10:15:44.996Z,-0.44
2022-12-16T10:21:10.935Z,-0.51
2022-12-16T10:26:35.456Z,-0.32
2022-12-16T10:31:56.060Z,-0.47
2022-12-16T10:37:20.960Z,-0.36
2022-12-16T10:42:48.913Z,-0.34
2022-12-16T10:48:08.945Z,-0.21
2022-12-16T10:53:45.058Z,-0.11
2022-12-16T10:59:12.602Z,-0.06
2022-12-16T11:04:51.666Z,-0.10
2022-12-16T11:10:19.878Z,-0.09
2022-12-16T11:15:50.029Z,-0.22
2022-12-16T11:21:24.788Z,-0.03
2022-12-16T11:26:44.730Z,-0.12
2022-12-16T11:32:09.473Z,-0.13
2022-12-16T11:37:29.223Z,-0.10
2022-12-16T11:42:51.353Z,0.06
2022-12-16T11:48:15.022Z,0.11
2022-12-16T11:53:44.217Z,0.12
2022-12-16T11:59:11.469Z,0.18
2022-12-16T12:04:33.150Z,-0.05
2022-12-16T12:09:59.988Z,-0.02
2022-12-16T12:15:20.097Z,-0.21
2022-12-16T12:21:05.954Z,0.02
2022-12-16T12:26:32.131Z,-0.28
2022-12-16T12:32:04.405Z,-0.56
2022-12-16T12:37:27.359Z,-0.49
2022-12-16T12:42:57.155Z,-0.44
2022-12-16T12:48:56.098Z,-0.29
2022-12-16T12:54:33.231Z,-0.12
2022-12-16T13:00:02.231Z,-0.31
2022-12-16T13:05:24.759Z,-0.26
2022-12-16T13:10:44.738Z,-0.31
2022-12-16T13:16:04.995Z,-0.45
2022-12-16T13:22:04.920Z,-0.48
2022-12-16T13:27:31.575Z,-0.54
2022-12-16T13:32:52.075Z,-0.48
2022-12-16T13:38:25.038Z,-0.49
2022-12-16T13:44:03.700Z,-0.36
2022-12-16T13:50:09.278Z,-0.35
2022-12-16T13:55:38.123Z,-0.35
2022-12-16T14:01:00.319Z,-0.42
2022-12-16T14:06:23.540Z,-0.61
2022-12-16T14:12:05.570Z,-0.42
2022-12-16T14:17:32.327Z,-0.63
2022-12-16T14:23:32.760Z,-0.52
2022-12-16T14:29:00.517Z,-0.78
2022-12-16T14:34:22.597Z,-0.66
2022-12-16T14:39:48.513Z,-0.67
2022-12-16T14:45:08.572Z,-0.60
2022-12-16T14:50:45.270Z,-0.61
2022-12-16T14:56:05.243Z,-0.57
2022-12-16T15:01:36.326Z,-0.55
2022-12-16T15:07:03.156Z,-0.50
2022-12-16T15:12:25.479Z,-0.48
2022-12-16T15:18:14.752Z,-0.58
2022-12-16T15:23:57.937Z,-0.45
2022-12-16T15:29:18.034Z,-0.56
2022-12-16T15:34:49.353Z,-0.43
2022-12-16T15:40:09.462Z,-0.63
2022-12-16T15:45:41.251Z,-0.59
2022-12-16T15:51:12.061Z,-0.58
2022-12-16T15:56:40.869Z,-0.47
2022-12-16T16:02:04.838Z,-0.52
2022-12-16T16:07:35.405Z,-0.43
2022-12-16T16:12:55.465Z,-0.43
2022-12-16T16:18:24.484Z,-0.53
2022-12-16T16:23:44.370Z,-0.51
2022-12-16T16:29:04.428Z,-0.42
2022-12-16T16:34:24.282Z,-0.43
2022-12-16T16:39:44.483Z,-0.37
2022-12-16T16:45:04.709Z,-0.43
2022-12-16T16:50:25.516Z,-0.41
2022-12-16T16:55:45.624Z,-0.36
2022-12-16T17:01:05.851Z,-0.25
2022-12-16T17:06:25.798Z,-0.30
2022-12-16T17:11:46.845Z,-0.39
2022-12-16T17:17:06.951Z,-0.31
2022-12-16T17:22:27.078Z,-0.42
2022-12-16T17:27:47.302Z,-0.39
2022-12-16T17:33:07.395Z,-0.36
2022-12-16T17:38:32.022Z,-0.49
2022-12-16T17:43:52.206Z,-0.47
2022-12-16T17:49:17.368Z,-0.48
2022-12-16T17:54:37.531Z,-0.46
2022-12-16T17:59:57.532Z,-0.53
2022-12-16T18:05:17.788Z,-0.36
2022-12-16T18:10:37.782Z,-0.50
2022-12-16T18:15:58.067Z,-0.62
2022-12-16T18:21:30.774Z,-0.61
2022-12-16T18:26:50.901Z,-0.66
2022-12-16T18:32:10.958Z,-0.59
2022-12-16T18:37:32.512Z,-0.55
2022-12-16T18:42:52.540Z,-0.73
2022-12-16T18:48:12.582Z,-0.64
2022-12-16T18:53:33.110Z,-0.71
2022-12-16T18:58:54.349Z,-0.76
2022-12-16T19:04:16.087Z,-0.76
2022-12-16T19:09:35.926Z,-0.81
2022-12-16T19:14:55.897Z,-0.87
2022-12-16T19:20:16.171Z,-0.44
2022-12-16T19:25:36.156Z,-0.84
2022-12-16T19:30:56.494Z,-0.79
2022-12-16T19:36:16.415Z,-0.78
2022-12-16T19:41:37.042Z,-1.00
2022-12-16T19:46:57.090Z,-1.13
2022-12-16T19:52:17.320Z,-1.06
2022-12-16T19:57:37.411Z,-1.10
2022-12-16T20:02:57.823Z,-0.81
2022-12-16T20:08:17.938Z,-0.47
2022-12-16T20:13:37.842Z,-0.80
2022-12-16T20:18:57.920Z,-0.78
2022-12-16T20:24:17.996Z,-0.83
2022-12-16T20:29:37.964Z,-1.07
2022-12-16T20:34:58.105Z,-0.91
2022-12-16T20:40:18.270Z,-0.80
2022-12-16T20:45:38.448Z,-0.86
2022-12-16T20:50:58.515Z,-0.80
2022-12-16T20:56:24.191Z,-0.65
2022-12-16T21:02:21.729Z,-0.87
2022-12-16T21:07:35.798Z,-1.02
2022-12-16T21:12:55.774Z,-0.83
2022-12-16T21:18:21.007Z,-1.09
2022-12-16T21:23:41.430Z,-1.14
2022-12-16T21:29:01.765Z,-1.64
2022-12-16T21:34:22.691Z,-1.37
2022-12-16T21:39:42.545Z,-1.44
2022-12-16T21:45:02.807Z,-1.38
2022-12-16T21:50:23.195Z,-1.45
2022-12-16T21:55:43.609Z,-1.29
2022-12-16T22:01:03.950Z,-1.49
2022-12-16T22:06:24.339Z,-1.62
2022-12-16T22:11:44.498Z,-1.87
2022-12-16T22:17:05.823Z,-1.92
2022-12-16T22:22:25.885Z,-1.88
2022-12-16T22:27:46.093Z,-1.66
2022-12-16T22:33:06.319Z,-1.82
2022-12-16T22:38:43.171Z,-1.54
2022-12-16T22:44:03.529Z,-1.87
2022-12-16T22:49:23.632Z,-1.89
2022-12-16T22:54:43.968Z,-1.70
2022-12-16T23:00:04.225Z,-2.02
2022-12-16T23:05:27.720Z,-1.71
2022-12-16T23:10:48.441Z,-2.05
2022-12-16T23:16:08.627Z,-1.86
2022-12-16T23:21:35.168Z,-1.95
2022-12-16T23:26:55.250Z,-2.03
2022-12-16T23:32:16.105Z,-1.91
2022-12-16T23:37:36.777Z,-1.94
2022-12-16T23:42:56.888Z,-1.90
2022-12-16T23:48:26.518Z,-1.83
2022-12-16T23:53:46.642Z,-1.86
2022-12-16T23:59:06.622Z,-1.94
